sensor_id;sensor_type;location;lat;lon;timestamp;temperature;humidity
4081;DHT22;2055;50.074;8.436;2023-07-08T00:01:11;21.70;73.60
4081;DHT22;2055;50.074;8.436;2023-07-08T00:03:38;21.70;73.50
4081;DHT22;2055;50.074;8.436;2023-07-08T00:06:03;21.70;74.10
4081;DHT22;2055;50.074;8.436;2023-07-08T00:08:29;21.50;75.50
4081;DHT22;2055;50.074;8.436;2023-07-08T00:10:55;21.60;73.60
4081;DHT22;2055;50.074;8.436;2023-07-08T00:13:21;21.80;73.50
4081;DHT22;2055;50.074;8.436;2023-07-08T00:15:46;21.70;73.50
4081;DHT22;2055;50.074;8.436;2023-07-08T00:18:17;21.60;74.40
4081;DHT22;2055;50.074;8.436;2023-07-08T00:20:47;21.60;74.00
4081;DHT22;2055;50.074;8.436;2023-07-08T00:23:13;21.60;73.80
4081;DHT22;2055;50.074;8.436;2023-07-08T00:25:39;21.80;73.10
4081;DHT22;2055;50.074;8.436;2023-07-08T00:28:25;21.70;73.70
4081;DHT22;2055;50.074;8.436;2023-07-08T00:30:53;22.00;72.60
4081;DHT22;2055;50.074;8.436;2023-07-08T00:33:20;21.90;73.10
4081;DHT22;2055;50.074;8.436;2023-07-08T00:35:46;21.80;72.70
4081;DHT22;2055;50.074;8.436;2023-07-08T00:38:25;21.90;72.60
4081;DHT22;2055;50.074;8.436;2023-07-08T00:40:58;22.00;72.10
4081;DHT22;2055;50.074;8.436;2023-07-08T00:43:34;21.90;72.40
4081;DHT22;2055;50.074;8.436;2023-07-08T00:46:18;21.90;72.50
4081;DHT22;2055;50.074;8.436;2023-07-08T00:48:45;21.80;72.70
4081;DHT22;2055;50.074;8.436;2023-07-08T00:51:11;21.80;72.70
4081;DHT22;2055;50.074;8.436;2023-07-08T00:53:38;21.70;72.80
4081;DHT22;2055;50.074;8.436;2023-07-08T00:56:13;21.70;72.70
4081;DHT22;2055;50.074;8.436;2023-07-08T00:58:44;21.80;72.50
4081;DHT22;2055;50.074;8.436;2023-07-08T01:01:11;21.80;71.80
4081;DHT22;2055;50.074;8.436;2023-07-08T01:03:44;21.70;72.50
4081;DHT22;2055;50.074;8.436;2023-07-08T01:06:11;21.60;73.80
4081;DHT22;2055;50.074;8.436;2023-07-08T01:08:38;21.40;74.50
4081;DHT22;2055;50.074;8.436;2023-07-08T01:11:06;21.30;74.20
4081;DHT22;2055;50.074;8.436;2023-07-08T01:13:39;21.30;74.50
4081;DHT22;2055;50.074;8.436;2023-07-08T01:16:07;21.40;74.60
4081;DHT22;2055;50.074;8.436;2023-07-08T01:18:33;21.40;74.00
4081;DHT22;2055;50.074;8.436;2023-07-08T01:21:30;21.50;74.60
4081;DHT22;2055;50.074;8.436;2023-07-08T01:23:56;21.50;74.90
4081;DHT22;2055;50.074;8.436;2023-07-08T01:26:23;21.40;75.30
4081;DHT22;2055;50.074;8.436;2023-07-08T01:28:50;21.40;75.10
4081;DHT22;2055;50.074;8.436;2023-07-08T01:31:16;21.50;74.60
4081;DHT22;2055;50.074;8.436;2023-07-08T01:33:42;21.50;74.50
4081;DHT22;2055;50.074;8.436;2023-07-08T01:36:11;21.50;74.30
4081;DHT22;2055;50.074;8.436;2023-07-08T01:38:38;21.50;74.20
4081;DHT22;2055;50.074;8.436;2023-07-08T01:41:05;21.50;74.60
4081;DHT22;2055;50.074;8.436;2023-07-08T01:43:31;21.60;74.10
4081;DHT22;2055;50.074;8.436;2023-07-08T01:46:00;21.50;74.60
4081;DHT22;2055;50.074;8.436;2023-07-08T01:48:27;21.40;75.90
4081;DHT22;2055;50.074;8.436;2023-07-08T01:51:00;21.30;74.30
4081;DHT22;2055;50.074;8.436;2023-07-08T01:53:34;21.30;74.60
4081;DHT22;2055;50.074;8.436;2023-07-08T01:56:00;21.30;74.80
4081;DHT22;2055;50.074;8.436;2023-07-08T01:58:26;21.20;75.40
4081;DHT22;2055;50.074;8.436;2023-07-08T02:00:53;21.20;75.80
4081;DHT22;2055;50.074;8.436;2023-07-08T02:03:19;21.20;75.80
4081;DHT22;2055;50.074;8.436;2023-07-08T02:05:45;21.10;76.20
4081;DHT22;2055;50.074;8.436;2023-07-08T02:08:10;21.10;76.20
4081;DHT22;2055;50.074;8.436;2023-07-08T02:10:38;21.20;76.00
4081;DHT22;2055;50.074;8.436;2023-07-08T02:13:03;21.10;76.10
4081;DHT22;2055;50.074;8.436;2023-07-08T02:15:29;21.00;76.50
4081;DHT22;2055;50.074;8.436;2023-07-08T02:17:55;21.00;76.90
4081;DHT22;2055;50.074;8.436;2023-07-08T02:20:21;20.80;76.90
4081;DHT22;2055;50.074;8.436;2023-07-08T02:22:47;20.70;78.10
4081;DHT22;2055;50.074;8.436;2023-07-08T02:25:12;20.70;77.00
4081;DHT22;2055;50.074;8.436;2023-07-08T02:27:38;20.70;76.90
4081;DHT22;2055;50.074;8.436;2023-07-08T02:30:04;22.40;79.40
4081;DHT22;2055;50.074;8.436;2023-07-08T02:32:30;20.60;77.20
4081;DHT22;2055;50.074;8.436;2023-07-08T02:35:00;20.60;76.90
4081;DHT22;2055;50.074;8.436;2023-07-08T02:37:25;20.60;77.20
4081;DHT22;2055;50.074;8.436;2023-07-08T02:39:51;20.50;78.60
4081;DHT22;2055;50.074;8.436;2023-07-08T02:42:16;20.30;78.30
4081;DHT22;2055;50.074;8.436;2023-07-08T02:44:42;20.40;77.80
4081;DHT22;2055;50.074;8.436;2023-07-08T02:47:07;20.30;77.90
4081;DHT22;2055;50.074;8.436;2023-07-08T02:49:33;20.30;78.50
4081;DHT22;2055;50.074;8.436;2023-07-08T02:52:00;20.40;77.90
4081;DHT22;2055;50.074;8.436;2023-07-08T02:54:25;20.50;77.10
4081;DHT22;2055;50.074;8.436;2023-07-08T02:56:51;20.40;77.70
4081;DHT22;2055;50.074;8.436;2023-07-08T02:59:16;22.10;79.30
4081;DHT22;2055;50.074;8.436;2023-07-08T03:01:42;20.50;77.80
4081;DHT22;2055;50.074;8.436;2023-07-08T03:04:11;20.40;78.20
4081;DHT22;2055;50.074;8.436;2023-07-08T03:06:40;20.30;77.70
4081;DHT22;2055;50.074;8.436;2023-07-08T03:09:07;20.30;77.60
4081;DHT22;2055;50.074;8.436;2023-07-08T03:11:32;20.40;77.30
4081;DHT22;2055;50.074;8.436;2023-07-08T03:13:58;20.40;77.30
4081;DHT22;2055;50.074;8.436;2023-07-08T03:16:23;20.40;77.10
4081;DHT22;2055;50.074;8.436;2023-07-08T03:18:49;20.30;78.70
4081;DHT22;2055;50.074;8.436;2023-07-08T03:21:16;20.20;78.40
4081;DHT22;2055;50.074;8.436;2023-07-08T03:23:43;20.10;78.70
4081;DHT22;2055;50.074;8.436;2023-07-08T03:26:29;20.10;79.30
4081;DHT22;2055;50.074;8.436;2023-07-08T03:28:54;20.10;79.60
4081;DHT22;2055;50.074;8.436;2023-07-08T03:31:20;19.00;77.90
4081;DHT22;2055;50.074;8.436;2023-07-08T03:33:45;20.10;79.20
4081;DHT22;2055;50.074;8.436;2023-07-08T03:36:13;20.20;78.70
4081;DHT22;2055;50.074;8.436;2023-07-08T03:38:51;20.30;79.10
4081;DHT22;2055;50.074;8.436;2023-07-08T03:41:17;20.40;78.70
4081;DHT22;2055;50.074;8.436;2023-07-08T03:43:43;20.70;78.60
4081;DHT22;2055;50.074;8.436;2023-07-08T03:46:15;20.60;78.30
4081;DHT22;2055;50.074;8.436;2023-07-08T03:48:40;21.90;78.80
4081;DHT22;2055;50.074;8.436;2023-07-08T03:51:11;20.70;79.30
4081;DHT22;2055;50.074;8.436;2023-07-08T03:53:40;20.80;78.30
4081;DHT22;2055;50.074;8.436;2023-07-08T03:56:07;20.90;78.10
4081;DHT22;2055;50.074;8.436;2023-07-08T03:58:33;20.90;78.40
4081;DHT22;2055;50.074;8.436;2023-07-08T04:00:59;21.00;77.40
4081;DHT22;2055;50.074;8.436;2023-07-08T04:03:24;21.20;77.50
4081;DHT22;2055;50.074;8.436;2023-07-08T04:05:50;21.10;78.20
4081;DHT22;2055;50.074;8.436;2023-07-08T04:08:15;21.10;77.80
4081;DHT22;2055;50.074;8.436;2023-07-08T04:10:41;21.10;77.50
4081;DHT22;2055;50.074;8.436;2023-07-08T04:13:06;21.10;77.80
4081;DHT22;2055;50.074;8.436;2023-07-08T04:15:32;21.10;78.50
4081;DHT22;2055;50.074;8.436;2023-07-08T04:17:57;21.10;78.00
4081;DHT22;2055;50.074;8.436;2023-07-08T04:20:23;21.30;77.90
4081;DHT22;2055;50.074;8.436;2023-07-08T04:22:48;21.30;77.60
4081;DHT22;2055;50.074;8.436;2023-07-08T04:25:14;21.30;77.60
4081;DHT22;2055;50.074;8.436;2023-07-08T04:27:40;21.30;79.90
4081;DHT22;2055;50.074;8.436;2023-07-08T04:30:06;21.30;79.10
4081;DHT22;2055;50.074;8.436;2023-07-08T04:32:32;21.40;78.30
4081;DHT22;2055;50.074;8.436;2023-07-08T04:34:57;21.50;77.80
4081;DHT22;2055;50.074;8.436;2023-07-08T04:37:23;21.60;77.80
4081;DHT22;2055;50.074;8.436;2023-07-08T04:39:49;21.60;78.40
4081;DHT22;2055;50.074;8.436;2023-07-08T04:42:15;21.60;77.50
4081;DHT22;2055;50.074;8.436;2023-07-08T04:44:43;21.60;79.30
4081;DHT22;2055;50.074;8.436;2023-07-08T04:47:09;21.60;79.60
4081;DHT22;2055;50.074;8.436;2023-07-08T04:49:39;21.50;81.90
4081;DHT22;2055;50.074;8.436;2023-07-08T04:52:09;21.50;82.30
4081;DHT22;2055;50.074;8.436;2023-07-08T04:54:35;21.40;81.10
4081;DHT22;2055;50.074;8.436;2023-07-08T04:57:00;21.70;82.60
4081;DHT22;2055;50.074;8.436;2023-07-08T04:59:26;21.40;83.10
4081;DHT22;2055;50.074;8.436;2023-07-08T05:01:52;21.50;82.10
4081;DHT22;2055;50.074;8.436;2023-07-08T05:04:20;21.40;82.00
4081;DHT22;2055;50.074;8.436;2023-07-08T05:06:46;21.40;82.90
4081;DHT22;2055;50.074;8.436;2023-07-08T05:09:11;21.40;85.30
4081;DHT22;2055;50.074;8.436;2023-07-08T05:11:37;21.40;86.30
4081;DHT22;2055;50.074;8.436;2023-07-08T05:14:04;21.30;86.30
4081;DHT22;2055;50.074;8.436;2023-07-08T05:16:31;21.40;86.70
4081;DHT22;2055;50.074;8.436;2023-07-08T05:18:57;21.30;87.90
4081;DHT22;2055;50.074;8.436;2023-07-08T05:21:23;21.40;89.20
4081;DHT22;2055;50.074;8.436;2023-07-08T05:23:49;21.40;89.20
4081;DHT22;2055;50.074;8.436;2023-07-08T05:26:15;21.40;90.00
4081;DHT22;2055;50.074;8.436;2023-07-08T05:28:41;21.50;90.80
4081;DHT22;2055;50.074;8.436;2023-07-08T05:31:06;21.60;91.00
4081;DHT22;2055;50.074;8.436;2023-07-08T05:33:33;21.60;91.30
4081;DHT22;2055;50.074;8.436;2023-07-08T05:35:59;21.60;91.60
4081;DHT22;2055;50.074;8.436;2023-07-08T05:38:25;21.70;92.50
4081;DHT22;2055;50.074;8.436;2023-07-08T05:40:54;21.60;92.10
4081;DHT22;2055;50.074;8.436;2023-07-08T05:43:20;21.80;92.70
4081;DHT22;2055;50.074;8.436;2023-07-08T05:45:46;21.50;93.30
4081;DHT22;2055;50.074;8.436;2023-07-08T05:48:12;21.50;93.60
4081;DHT22;2055;50.074;8.436;2023-07-08T05:50:38;21.50;92.70
4081;DHT22;2055;50.074;8.436;2023-07-08T05:53:04;21.60;92.80
4081;DHT22;2055;50.074;8.436;2023-07-08T05:55:34;21.70;92.50
4081;DHT22;2055;50.074;8.436;2023-07-08T05:57:59;21.80;92.50
4081;DHT22;2055;50.074;8.436;2023-07-08T06:00:25;21.90;92.10
4081;DHT22;2055;50.074;8.436;2023-07-08T06:02:50;22.00;91.60
4081;DHT22;2055;50.074;8.436;2023-07-08T06:05:16;22.10;90.90
4081;DHT22;2055;50.074;8.436;2023-07-08T06:07:42;22.20;90.50
4081;DHT22;2055;50.074;8.436;2023-07-08T06:10:07;22.30;91.50
4081;DHT22;2055;50.074;8.436;2023-07-08T06:12:33;22.40;90.80
4081;DHT22;2055;50.074;8.436;2023-07-08T06:14:59;22.60;91.10
4081;DHT22;2055;50.074;8.436;2023-07-08T06:17:24;22.70;88.60
4081;DHT22;2055;50.074;8.436;2023-07-08T06:19:50;22.70;87.30
4081;DHT22;2055;50.074;8.436;2023-07-08T06:22:15;22.70;89.00
4081;DHT22;2055;50.074;8.436;2023-07-08T06:24:41;22.80;90.50
4081;DHT22;2055;50.074;8.436;2023-07-08T06:27:08;22.70;89.10
4081;DHT22;2055;50.074;8.436;2023-07-08T06:29:34;22.70;89.60
4081;DHT22;2055;50.074;8.436;2023-07-08T06:32:00;22.70;89.70
4081;DHT22;2055;50.074;8.436;2023-07-08T06:34:26;22.70;88.80
4081;DHT22;2055;50.074;8.436;2023-07-08T06:36:51;22.60;90.00
4081;DHT22;2055;50.074;8.436;2023-07-08T06:39:17;22.60;89.40
4081;DHT22;2055;50.074;8.436;2023-07-08T06:41:46;22.60;89.20
4081;DHT22;2055;50.074;8.436;2023-07-08T06:44:11;22.60;88.40
4081;DHT22;2055;50.074;8.436;2023-07-08T06:46:37;22.60;88.70
4081;DHT22;2055;50.074;8.436;2023-07-08T06:49:03;22.70;87.70
4081;DHT22;2055;50.074;8.436;2023-07-08T06:51:29;22.80;89.70
4081;DHT22;2055;50.074;8.436;2023-07-08T06:53:54;23.00;89.60
4081;DHT22;2055;50.074;8.436;2023-07-08T06:56:20;23.10;87.60
4081;DHT22;2055;50.074;8.436;2023-07-08T06:58:46;23.20;88.30
4081;DHT22;2055;50.074;8.436;2023-07-08T07:01:11;23.20;85.00
4081;DHT22;2055;50.074;8.436;2023-07-08T07:03:37;23.30;85.40
4081;DHT22;2055;50.074;8.436;2023-07-08T07:06:03;23.40;86.30
4081;DHT22;2055;50.074;8.436;2023-07-08T07:08:28;23.30;86.10
4081;DHT22;2055;50.074;8.436;2023-07-08T07:10:54;23.30;88.30
4081;DHT22;2055;50.074;8.436;2023-07-08T07:13:20;23.50;85.90
4081;DHT22;2055;50.074;8.436;2023-07-08T07:15:48;23.40;84.90
4081;DHT22;2055;50.074;8.436;2023-07-08T07:18:14;23.40;86.20
4081;DHT22;2055;50.074;8.436;2023-07-08T07:20:48;23.50;86.80
4081;DHT22;2055;50.074;8.436;2023-07-08T07:23:14;23.50;87.70
4081;DHT22;2055;50.074;8.436;2023-07-08T07:25:39;23.60;88.00
4081;DHT22;2055;50.074;8.436;2023-07-08T07:28:05;23.60;89.00
4081;DHT22;2055;50.074;8.436;2023-07-08T07:30:30;23.50;91.00
4081;DHT22;2055;50.074;8.436;2023-07-08T07:32:59;23.30;95.00
4081;DHT22;2055;50.074;8.436;2023-07-08T07:35:25;22.90;99.50
4081;DHT22;2055;50.074;8.436;2023-07-08T07:37:51;22.90;99.90
4081;DHT22;2055;50.074;8.436;2023-07-08T07:40:16;22.90;99.90
4081;DHT22;2055;50.074;8.436;2023-07-08T07:42:43;22.80;99.90
4081;DHT22;2055;50.074;8.436;2023-07-08T07:45:09;22.80;99.90
4081;DHT22;2055;50.074;8.436;2023-07-08T07:47:35;22.80;99.90
4081;DHT22;2055;50.074;8.436;2023-07-08T07:50:05;23.20;99.90
4081;DHT22;2055;50.074;8.436;2023-07-08T07:52:31;23.30;99.90
4081;DHT22;2055;50.074;8.436;2023-07-08T07:54:57;23.50;99.90
4081;DHT22;2055;50.074;8.436;2023-07-08T07:57:23;23.80;99.90
4081;DHT22;2055;50.074;8.436;2023-07-08T07:59:49;23.80;99.90
4081;DHT22;2055;50.074;8.436;2023-07-08T08:02:16;23.90;99.90
4081;DHT22;2055;50.074;8.436;2023-07-08T08:04:42;24.10;99.90
4081;DHT22;2055;50.074;8.436;2023-07-08T08:07:07;24.20;99.90
4081;DHT22;2055;50.074;8.436;2023-07-08T08:09:33;24.30;99.90
4081;DHT22;2055;50.074;8.436;2023-07-08T08:12:04;24.20;99.90
4081;DHT22;2055;50.074;8.436;2023-07-08T08:14:30;24.30;99.90
4081;DHT22;2055;50.074;8.436;2023-07-08T08:16:55;24.40;98.00
4081;DHT22;2055;50.074;8.436;2023-07-08T08:19:21;24.60;97.40
4081;DHT22;2055;50.074;8.436;2023-07-08T08:21:48;24.60;97.80
4081;DHT22;2055;50.074;8.436;2023-07-08T08:24:13;24.90;99.90
4081;DHT22;2055;50.074;8.436;2023-07-08T08:26:39;25.50;99.70
4081;DHT22;2055;50.074;8.436;2023-07-08T08:29:05;25.80;94.10
4081;DHT22;2055;50.074;8.436;2023-07-08T08:31:30;26.20;92.50
4081;DHT22;2055;50.074;8.436;2023-07-08T08:33:56;26.20;91.00
4081;DHT22;2055;50.074;8.436;2023-07-08T08:36:22;26.40;91.70
4081;DHT22;2055;50.074;8.436;2023-07-08T08:38:48;26.80;92.30
4081;DHT22;2055;50.074;8.436;2023-07-08T08:41:16;28.50;92.10
4081;DHT22;2055;50.074;8.436;2023-07-08T08:43:43;26.80;90.50
4081;DHT22;2055;50.074;8.436;2023-07-08T08:51:45;27.20;91.20
4081;DHT22;2055;50.074;8.436;2023-07-08T08:54:11;27.00;88.60
4081;DHT22;2055;50.074;8.436;2023-07-08T08:56:52;27.30;88.40
4081;DHT22;2055;50.074;8.436;2023-07-08T09:01:59;28.30;82.80
4081;DHT22;2055;50.074;8.436;2023-07-08T09:04:31;28.60;82.30
4081;DHT22;2055;50.074;8.436;2023-07-08T09:07:08;29.20;83.10
4081;DHT22;2055;50.074;8.436;2023-07-08T09:09:47;29.50;79.90
4081;DHT22;2055;50.074;8.436;2023-07-08T09:12:22;29.60;82.10
4081;DHT22;2055;50.074;8.436;2023-07-08T09:14:50;29.40;84.30
4081;DHT22;2055;50.074;8.436;2023-07-08T09:17:23;29.70;78.90
4081;DHT22;2055;50.074;8.436;2023-07-08T09:25:43;29.40;77.30
4081;DHT22;2055;50.074;8.436;2023-07-08T09:28:13;29.40;76.40
4081;DHT22;2055;50.074;8.436;2023-07-08T09:30:39;29.30;75.40
4081;DHT22;2055;50.074;8.436;2023-07-08T09:33:08;29.20;77.40
4081;DHT22;2055;50.074;8.436;2023-07-08T09:35:47;29.50;76.20
4081;DHT22;2055;50.074;8.436;2023-07-08T09:38:21;29.70;78.40
4081;DHT22;2055;50.074;8.436;2023-07-08T09:40:49;29.90;80.00
4081;DHT22;2055;50.074;8.436;2023-07-08T09:43:37;30.20;75.90
4081;DHT22;2055;50.074;8.436;2023-07-08T09:46:04;30.60;77.40
4081;DHT22;2055;50.074;8.436;2023-07-08T09:48:34;30.50;75.10
4081;DHT22;2055;50.074;8.436;2023-07-08T09:51:00;30.50;75.10
4081;DHT22;2055;50.074;8.436;2023-07-08T09:53:26;30.70;73.20
4081;DHT22;2055;50.074;8.436;2023-07-08T09:55:53;30.70;72.10
4081;DHT22;2055;50.074;8.436;2023-07-08T09:58:27;30.90;72.30
4081;DHT22;2055;50.074;8.436;2023-07-08T10:01:00;30.60;71.00
4081;DHT22;2055;50.074;8.436;2023-07-08T10:03:29;30.90;69.70
4081;DHT22;2055;50.074;8.436;2023-07-08T10:05:57;31.60;69.60
4081;DHT22;2055;50.074;8.436;2023-07-08T10:08:34;31.90;70.60
4081;DHT22;2055;50.074;8.436;2023-07-08T10:11:22;31.50;66.10
4081;DHT22;2055;50.074;8.436;2023-07-08T10:13:51;30.80;66.60
4081;DHT22;2055;50.074;8.436;2023-07-08T10:16:32;31.00;68.50
4081;DHT22;2055;50.074;8.436;2023-07-08T10:18:58;30.70;69.70
4081;DHT22;2055;50.074;8.436;2023-07-08T10:24:44;31.50;70.10
4081;DHT22;2055;50.074;8.436;2023-07-08T10:26:50;32.30;68.30
4081;DHT22;2055;50.074;8.436;2023-07-08T10:29:31;32.30;68.10
4081;DHT22;2055;50.074;8.436;2023-07-08T10:32:08;32.90;67.10
4081;DHT22;2055;50.074;8.436;2023-07-08T10:43:21;32.60;65.10
4081;DHT22;2055;50.074;8.436;2023-07-08T10:49:00;32.00;64.20
4081;DHT22;2055;50.074;8.436;2023-07-08T10:51:34;32.60;63.00
4081;DHT22;2055;50.074;8.436;2023-07-08T10:54:30;32.80;62.80
4081;DHT22;2055;50.074;8.436;2023-07-08T11:02:50;32.10;66.20
4081;DHT22;2055;50.074;8.436;2023-07-08T11:05:41;32.10;63.50
4081;DHT22;2055;50.074;8.436;2023-07-08T11:10:49;32.40;66.70
4081;DHT22;2055;50.074;8.436;2023-07-08T11:13:19;32.40;62.80
4081;DHT22;2055;50.074;8.436;2023-07-08T11:15:54;31.40;64.20
4081;DHT22;2055;50.074;8.436;2023-07-08T11:18:50;30.80;65.80
4081;DHT22;2055;50.074;8.436;2023-07-08T11:21:23;30.50;64.10
4081;DHT22;2055;50.074;8.436;2023-07-08T11:23:55;31.30;67.10
4081;DHT22;2055;50.074;8.436;2023-07-08T11:26:54;31.80;64.70
4081;DHT22;2055;50.074;8.436;2023-07-08T11:29:34;32.20;63.80
4081;DHT22;2055;50.074;8.436;2023-07-08T11:32:03;33.10;64.40
4081;DHT22;2055;50.074;8.436;2023-07-08T11:34:29;32.60;60.30
4081;DHT22;2055;50.074;8.436;2023-07-08T11:36:57;33.80;65.50
4081;DHT22;2055;50.074;8.436;2023-07-08T11:39:31;34.20;59.80
4081;DHT22;2055;50.074;8.436;2023-07-08T11:42:17;34.70;57.80
4081;DHT22;2055;50.074;8.436;2023-07-08T11:44:55;35.10;58.30
4081;DHT22;2055;50.074;8.436;2023-07-08T11:49:58;35.00;60.90
4081;DHT22;2055;50.074;8.436;2023-07-08T11:52:24;34.70;59.10
4081;DHT22;2055;50.074;8.436;2023-07-08T11:54:58;34.90;59.40
4081;DHT22;2055;50.074;8.436;2023-07-08T11:57:30;35.00;59.60
4081;DHT22;2055;50.074;8.436;2023-07-08T12:02:50;35.20;57.00
4081;DHT22;2055;50.074;8.436;2023-07-08T12:05:16;35.30;57.80
4081;DHT22;2055;50.074;8.436;2023-07-08T12:07:47;35.90;58.00
4081;DHT22;2055;50.074;8.436;2023-07-08T12:10:19;35.00;56.90
4081;DHT22;2055;50.074;8.436;2023-07-08T12:12:48;35.30;56.60
4081;DHT22;2055;50.074;8.436;2023-07-08T12:15:23;35.30;58.30
4081;DHT22;2055;50.074;8.436;2023-07-08T12:17:51;35.50;59.70
4081;DHT22;2055;50.074;8.436;2023-07-08T12:20:30;35.90;55.50
4081;DHT22;2055;50.074;8.436;2023-07-08T12:22:57;36.10;54.80
4081;DHT22;2055;50.074;8.436;2023-07-08T12:25:27;36.30;56.10
4081;DHT22;2055;50.074;8.436;2023-07-08T12:27:53;36.00;54.40
4081;DHT22;2055;50.074;8.436;2023-07-08T12:30:18;35.80;53.90
4081;DHT22;2055;50.074;8.436;2023-07-08T12:32:44;35.70;55.70
4081;DHT22;2055;50.074;8.436;2023-07-08T12:35:22;35.40;55.30
4081;DHT22;2055;50.074;8.436;2023-07-08T12:37:49;35.40;58.10
4081;DHT22;2055;50.074;8.436;2023-07-08T12:40:15;36.40;54.50
4081;DHT22;2055;50.074;8.436;2023-07-08T12:42:41;36.60;52.60
4081;DHT22;2055;50.074;8.436;2023-07-08T12:45:15;37.10;56.40
4081;DHT22;2055;50.074;8.436;2023-07-08T12:47:42;37.60;54.30
4081;DHT22;2055;50.074;8.436;2023-07-08T12:50:09;37.90;52.80
4081;DHT22;2055;50.074;8.436;2023-07-08T12:52:35;37.30;50.20
4081;DHT22;2055;50.074;8.436;2023-07-08T12:55:01;37.40;51.00
4081;DHT22;2055;50.074;8.436;2023-07-08T12:57:26;37.20;53.80
4081;DHT22;2055;50.074;8.436;2023-07-08T12:59:52;37.30;51.30
4081;DHT22;2055;50.074;8.436;2023-07-08T13:02:20;37.20;52.60
4081;DHT22;2055;50.074;8.436;2023-07-08T13:04:49;37.50;51.10
4081;DHT22;2055;50.074;8.436;2023-07-08T13:07:28;37.30;50.70
4081;DHT22;2055;50.074;8.436;2023-07-08T13:09:57;35.90;50.30
4081;DHT22;2055;50.074;8.436;2023-07-08T13:12:23;36.90;49.80
4081;DHT22;2055;50.074;8.436;2023-07-08T13:14:53;37.50;49.60
4081;DHT22;2055;50.074;8.436;2023-07-08T13:17:20;37.70;47.60
4081;DHT22;2055;50.074;8.436;2023-07-08T13:19:46;37.90;48.00
4081;DHT22;2055;50.074;8.436;2023-07-08T13:22:15;38.40;47.70
4081;DHT22;2055;50.074;8.436;2023-07-08T13:24:41;38.70;49.00
4081;DHT22;2055;50.074;8.436;2023-07-08T13:27:16;38.20;49.00
4081;DHT22;2055;50.074;8.436;2023-07-08T13:29:43;38.20;49.50
4081;DHT22;2055;50.074;8.436;2023-07-08T13:32:10;39.10;48.30
4081;DHT22;2055;50.074;8.436;2023-07-08T13:34:36;39.10;49.10
4081;DHT22;2055;50.074;8.436;2023-07-08T13:37:02;39.10;50.20
4081;DHT22;2055;50.074;8.436;2023-07-08T13:39:32;38.50;47.70
4081;DHT22;2055;50.074;8.436;2023-07-08T13:41:59;38.30;47.20
4081;DHT22;2055;50.074;8.436;2023-07-08T13:44:26;37.20;49.00
4081;DHT22;2055;50.074;8.436;2023-07-08T13:46:58;38.30;49.90
4081;DHT22;2055;50.074;8.436;2023-07-08T13:49:26;38.10;51.70
4081;DHT22;2055;50.074;8.436;2023-07-08T13:54:50;38.70;49.70
4081;DHT22;2055;50.074;8.436;2023-07-08T13:57:20;38.90;48.70
4081;DHT22;2055;50.074;8.436;2023-07-08T13:59:46;39.20;46.70
4081;DHT22;2055;50.074;8.436;2023-07-08T14:02:25;39.70;46.90
4081;DHT22;2055;50.074;8.436;2023-07-08T14:04:52;39.60;47.80
4081;DHT22;2055;50.074;8.436;2023-07-08T14:07:21;38.80;46.80
4081;DHT22;2055;50.074;8.436;2023-07-08T14:09:47;38.90;48.40
4081;DHT22;2055;50.074;8.436;2023-07-08T14:12:13;38.00;47.60
4081;DHT22;2055;50.074;8.436;2023-07-08T14:14:38;38.20;46.80
4081;DHT22;2055;50.074;8.436;2023-07-08T14:17:05;38.30;47.00
4081;DHT22;2055;50.074;8.436;2023-07-08T14:19:33;39.00;47.30
4081;DHT22;2055;50.074;8.436;2023-07-08T14:24:39;39.20;45.10
4081;DHT22;2055;50.074;8.436;2023-07-08T14:27:06;39.10;47.40
4081;DHT22;2055;50.074;8.436;2023-07-08T14:29:40;39.20;47.50
4081;DHT22;2055;50.074;8.436;2023-07-08T14:32:15;39.40;46.50
4081;DHT22;2055;50.074;8.436;2023-07-08T14:34:42;39.70;44.30
4081;DHT22;2055;50.074;8.436;2023-07-08T14:37:14;39.60;45.40
4081;DHT22;2055;50.074;8.436;2023-07-08T14:39:40;40.20;46.10
4081;DHT22;2055;50.074;8.436;2023-07-08T14:42:10;39.80;46.10
4081;DHT22;2055;50.074;8.436;2023-07-08T14:44:41;40.10;45.90
4081;DHT22;2055;50.074;8.436;2023-07-08T14:47:13;39.00;43.80
4081;DHT22;2055;50.074;8.436;2023-07-08T14:49:40;40.00;45.10
4081;DHT22;2055;50.074;8.436;2023-07-08T14:52:06;40.60;44.60
4081;DHT22;2055;50.074;8.436;2023-07-08T14:54:32;41.20;43.90
4081;DHT22;2055;50.074;8.436;2023-07-08T14:56:57;41.40;44.20
4081;DHT22;2055;50.074;8.436;2023-07-08T14:59:27;41.20;41.80
4081;DHT22;2055;50.074;8.436;2023-07-08T15:01:56;40.60;40.30
4081;DHT22;2055;50.074;8.436;2023-07-08T15:04:22;39.50;41.50
4081;DHT22;2055;50.074;8.436;2023-07-08T15:06:48;38.80;41.60
4081;DHT22;2055;50.074;8.436;2023-07-08T15:09:15;38.60;41.40
4081;DHT22;2055;50.074;8.436;2023-07-08T15:11:44;39.00;42.20
4081;DHT22;2055;50.074;8.436;2023-07-08T15:14:20;39.40;42.30
4081;DHT22;2055;50.074;8.436;2023-07-08T15:16:47;39.20;41.60
4081;DHT22;2055;50.074;8.436;2023-07-08T15:19:12;40.20;42.40
4081;DHT22;2055;50.074;8.436;2023-07-08T15:21:42;40.40;41.20
4081;DHT22;2055;50.074;8.436;2023-07-08T15:24:11;40.20;41.70
4081;DHT22;2055;50.074;8.436;2023-07-08T15:26:41;40.60;41.10
4081;DHT22;2055;50.074;8.436;2023-07-08T15:29:14;40.80;38.60
4081;DHT22;2055;50.074;8.436;2023-07-08T15:31:40;40.10;39.10
4081;DHT22;2055;50.074;8.436;2023-07-08T15:34:14;39.90;38.90
4081;DHT22;2055;50.074;8.436;2023-07-08T15:36:40;39.60;39.80
4081;DHT22;2055;50.074;8.436;2023-07-08T15:39:06;39.70;39.40
4081;DHT22;2055;50.074;8.436;2023-07-08T15:41:31;40.10;38.50
4081;DHT22;2055;50.074;8.436;2023-07-08T15:43:58;40.10;39.80
4081;DHT22;2055;50.074;8.436;2023-07-08T15:46:32;40.60;40.40
4081;DHT22;2055;50.074;8.436;2023-07-08T15:48:58;40.50;38.50
4081;DHT22;2055;50.074;8.436;2023-07-08T15:51:23;40.70;39.20
4081;DHT22;2055;50.074;8.436;2023-07-08T15:53:49;40.50;37.30
4081;DHT22;2055;50.074;8.436;2023-07-08T15:56:18;40.00;38.60
4081;DHT22;2055;50.074;8.436;2023-07-08T15:58:46;39.70;40.10
4081;DHT22;2055;50.074;8.436;2023-07-08T16:01:17;40.00;39.60
4081;DHT22;2055;50.074;8.436;2023-07-08T16:03:45;40.10;40.40
4081;DHT22;2055;50.074;8.436;2023-07-08T16:06:11;40.70;38.90
4081;DHT22;2055;50.074;8.436;2023-07-08T16:08:36;41.30;37.80
4081;DHT22;2055;50.074;8.436;2023-07-08T16:11:05;40.30;37.10
4081;DHT22;2055;50.074;8.436;2023-07-08T16:13:37;40.70;36.20
4081;DHT22;2055;50.074;8.436;2023-07-08T16:16:03;39.90;38.90
4081;DHT22;2055;50.074;8.436;2023-07-08T16:18:29;39.60;37.40
4081;DHT22;2055;50.074;8.436;2023-07-08T16:20:55;39.70;38.80
4081;DHT22;2055;50.074;8.436;2023-07-08T16:23:21;38.20;38.30
4081;DHT22;2055;50.074;8.436;2023-07-08T16:25:49;38.80;39.20
4081;DHT22;2055;50.074;8.436;2023-07-08T16:28:40;39.70;38.50
4081;DHT22;2055;50.074;8.436;2023-07-08T16:31:14;40.30;36.30
4081;DHT22;2055;50.074;8.436;2023-07-08T16:33:41;41.10;36.60
4081;DHT22;2055;50.074;8.436;2023-07-08T16:36:12;40.40;35.80
4081;DHT22;2055;50.074;8.436;2023-07-08T16:38:39;40.10;36.70
4081;DHT22;2055;50.074;8.436;2023-07-08T16:41:04;39.30;37.30
4081;DHT22;2055;50.074;8.436;2023-07-08T16:43:31;39.10;37.30
4081;DHT22;2055;50.074;8.436;2023-07-08T16:46:00;39.40;37.50
4081;DHT22;2055;50.074;8.436;2023-07-08T16:48:25;39.10;38.10
4081;DHT22;2055;50.074;8.436;2023-07-08T16:50:51;38.60;39.70
4081;DHT22;2055;50.074;8.436;2023-07-08T16:53:17;39.00;42.30
4081;DHT22;2055;50.074;8.436;2023-07-08T16:55:43;36.30;41.50
4081;DHT22;2055;50.074;8.436;2023-07-08T16:58:12;34.80;43.00